createdAt,value
2023-05-12T00:02:25.463Z,9.73
2023-05-12T00:06:29.686Z,10.65
2023-05-12T00:10:32.627Z,10.63
2023-05-12T00:14:39.051Z,10.40
2023-05-12T00:22:46.056Z,10.15
2023-05-12T00:26:49.261Z,9.63
2023-05-12T00:30:52.102Z,8.38
2023-05-12T00:34:54.985Z,7.97
2023-05-12T00:38:59.444Z,8.35
2023-05-12T00:43:02.222Z,8.75
2023-05-12T00:47:05.850Z,8.05
2023-05-12T00:51:09.345Z,6.07
2023-05-12T00:55:13.518Z,4.88
2023-05-12T00:59:16.401Z,5.60
2023-05-12T01:03:19.909Z,5.60
2023-05-12T01:07:23.882Z,6.38
2023-05-12T01:11:28.030Z,6.13
2023-05-12T01:15:33.128Z,7.80
2023-05-12T01:19:42.518Z,7.68
2023-05-12T01:23:52.856Z,7.45
2023-05-12T01:27:57.199Z,8.88
2023-05-12T01:32:00.554Z,9.00
2023-05-12T01:36:03.579Z,10.20
2023-05-12T01:40:07.677Z,11.23
2023-05-12T01:44:11.804Z,10.30
2023-05-12T01:48:15.555Z,11.23
2023-05-12T01:52:18.916Z,11.23
2023-05-12T01:56:21.929Z,11.82
2023-05-12T02:00:27.189Z,11.27
2023-05-12T02:04:32.558Z,11.18
2023-05-12T02:08:36.597Z,11.55
2023-05-12T02:12:40.724Z,11.73
2023-05-12T02:16:45.245Z,10.90
2023-05-12T02:20:48.236Z,11.65
2023-05-12T02:24:51.094Z,9.68
2023-05-12T02:28:54.491Z,10.38
2023-05-12T02:32:59.902Z,9.57
2023-05-12T02:37:02.926Z,10.23
2023-05-12T02:41:06.411Z,10.73
2023-05-12T02:45:10.774Z,10.80
2023-05-12T02:49:14.990Z,10.82
2023-05-12T02:53:17.994Z,9.38
2023-05-12T02:57:21.096Z,8.63
2023-05-12T03:01:24.043Z,8.85
2023-05-12T03:05:28.298Z,8.38
2023-05-12T03:09:31.219Z,8.00
2023-05-12T03:13:34.475Z,8.30
2023-05-12T03:17:37.590Z,9.05
2023-05-12T03:21:42.183Z,10.25
2023-05-12T03:25:45.313Z,10.60
2023-05-12T03:29:49.579Z,12.02
2023-05-12T03:33:52.501Z,11.50
2023-05-12T03:37:56.979Z,12.38
2023-05-12T03:42:00.134Z,12.65
2023-05-12T03:46:03.669Z,12.70
2023-05-12T03:50:07.895Z,13.23
2023-05-12T03:54:12.093Z,13.88
2023-05-12T03:58:15.353Z,12.98
2023-05-12T04:02:18.263Z,12.88
2023-05-12T04:06:21.841Z,12.63
2023-05-12T04:10:26.135Z,12.05
2023-05-12T04:14:41.752Z,11.15
2023-05-12T04:18:45.893Z,11.43
2023-05-12T04:22:48.754Z,10.23
2023-05-12T04:26:53.099Z,10.65
2023-05-12T04:30:56.006Z,8.95
2023-05-12T04:35:00.444Z,9.95
2023-05-12T04:39:03.386Z,9.75
2023-05-12T04:43:08.118Z,8.60
2023-05-12T04:47:11.347Z,6.35
2023-05-12T04:51:14.219Z,6.80
2023-05-12T04:55:17.275Z,6.95
2023-05-12T04:59:21.900Z,6.40
2023-05-12T05:03:26.587Z,6.65
2023-05-12T05:07:29.574Z,7.22
2023-05-12T05:11:33.974Z,7.32
2023-05-12T05:15:38.205Z,6.60
2023-05-12T05:19:54.915Z,6.05
2023-05-12T05:24:01.982Z,6.70
2023-05-12T05:28:05.108Z,7.80
2023-05-12T05:32:10.028Z,7.63
2023-05-12T05:36:13.220Z,7.40
2023-05-12T05:40:16.281Z,5.45
2023-05-12T05:44:19.454Z,6.13
2023-05-12T05:48:24.307Z,6.65
2023-05-12T05:52:27.265Z,6.30
2023-05-12T05:56:32.657Z,7.80
2023-05-12T06:00:35.536Z,6.15
2023-05-12T06:04:40.206Z,6.45
2023-05-12T06:08:43.242Z,7.15
2023-05-12T06:12:47.319Z,7.18
2023-05-12T06:16:50.686Z,4.63
2023-05-12T06:20:55.006Z,1.65
2023-05-12T06:24:57.845Z,1.83
2023-05-12T06:29:00.715Z,1.10
2023-05-12T06:33:03.648Z,1.20
2023-05-12T06:37:08.073Z,2.40
2023-05-12T06:41:10.925Z,3.08
2023-05-12T06:45:13.831Z,3.17
2023-05-12T06:49:16.739Z,3.55
2023-05-12T06:53:21.797Z,4.10
2023-05-12T06:57:26.139Z,5.03
2023-05-12T07:01:29.386Z,5.05
2023-05-12T07:05:32.272Z,4.40
2023-05-12T07:09:36.517Z,4.78
2023-05-12T07:13:39.443Z,5.07
2023-05-12T07:17:42.377Z,4.65
2023-05-12T07:21:45.363Z,3.38
2023-05-12T07:25:49.608Z,3.63
2023-05-12T07:29:52.478Z,3.72
2023-05-12T07:33:55.376Z,3.53
2023-05-12T07:37:58.169Z,3.67
2023-05-12T07:42:02.410Z,3.50
2023-05-12T07:46:05.253Z,3.40
2023-05-12T07:50:08.516Z,3.53
2023-05-12T07:54:11.316Z,3.80
2023-05-12T07:58:15.500Z,3.25
2023-05-12T08:02:18.467Z,2.40
2023-05-12T08:06:21.330Z,2.42
2023-05-12T08:10:26.707Z,2.97
2023-05-12T08:14:30.957Z,3.80
2023-05-12T08:18:33.839Z,3.92
2023-05-12T08:22:36.689Z,4.03
2023-05-12T08:26:39.647Z,3.78
2023-05-12T08:30:45.156Z,4.18
2023-05-12T08:34:48.229Z,3.60
2023-05-12T08:38:51.092Z,4.05
2023-05-12T08:43:01.718Z,4.05
2023-05-12T08:47:07.225Z,3.92
2023-05-12T08:51:12.093Z,3.50
2023-05-12T08:55:15.643Z,3.40
2023-05-12T08:59:18.783Z,2.97
2023-05-12T09:03:24.452Z,4.20
2023-05-12T09:07:28.349Z,3.95
2023-05-12T09:11:31.203Z,4.70
2023-05-12T09:15:37.512Z,3.90
2023-05-12T09:23:53.639Z,4.15
2023-05-12T09:27:57.716Z,3.95
2023-05-12T09:32:02.633Z,4.15
2023-05-12T09:36:07.507Z,4.07
2023-05-12T09:40:13.682Z,3.65
2023-05-12T09:44:17.709Z,3.33
2023-05-12T09:48:21.072Z,3.78
2023-05-12T09:52:25.253Z,3.45
2023-05-12T09:56:29.460Z,2.67
2023-05-12T10:00:46.555Z,2.90
2023-05-12T10:05:02.146Z,3.47
2023-05-12T10:09:13.633Z,4.03
2023-05-12T10:13:16.652Z,4.18
2023-05-12T10:17:20.865Z,3.35
2023-05-12T10:21:25.714Z,3.45
2023-05-12T10:25:32.597Z,4.03
2023-05-12T10:29:36.732Z,3.50
2023-05-12T10:33:39.553Z,3.40
2023-05-12T10:37:43.554Z,3.78
2023-05-12T10:41:47.784Z,3.60
2023-05-12T10:46:16.258Z,3.38
2023-05-12T10:50:28.034Z,3.80
2023-05-12T10:54:30.893Z,3.40
2023-05-12T10:58:35.472Z,3.40
2023-05-12T11:02:51.089Z,2.95
2023-05-12T11:07:01.409Z,3.63
2023-05-12T11:11:04.540Z,4.57
2023-05-12T11:15:09.427Z,3.10
2023-05-12T11:19:12.775Z,2.25
2023-05-12T11:23:26.837Z,3.15
2023-05-12T11:27:29.654Z,2.53
2023-05-12T11:31:33.978Z,1.90
2023-05-12T11:35:36.900Z,2.38
2023-05-12T11:39:39.859Z,1.80
2023-05-12T11:43:43.205Z,2.40
2023-05-12T11:47:47.423Z,2.50
2023-05-12T11:51:52.893Z,2.60
2023-05-12T11:55:57.198Z,2.53
2023-05-12T12:00:02.148Z,2.35
2023-05-12T12:04:10.387Z,2.58
2023-05-12T12:08:14.710Z,2.25
2023-05-12T12:12:17.546Z,2.45
2023-05-12T12:16:20.444Z,2.42
2023-05-12T12:20:25.763Z,2.30
2023-05-12T12:24:28.603Z,2.17
2023-05-12T12:28:31.487Z,2.10
2023-05-12T12:32:34.410Z,2.20
2023-05-12T12:36:38.633Z,3.92
2023-05-12T12:40:41.487Z,2.38
2023-05-12T12:44:46.053Z,2.20
2023-05-12T12:48:49.036Z,2.20
2023-05-12T12:52:53.191Z,2.60
2023-05-12T12:56:56.577Z,2.72
2023-05-12T13:00:59.709Z,2.58
2023-05-12T13:05:04.155Z,2.95
2023-05-12T13:09:10.753Z,3.38
2023-05-12T13:13:13.662Z,3.20
2023-05-12T13:17:16.706Z,3.53
2023-05-12T13:21:19.908Z,2.80
2023-05-12T13:25:24.390Z,2.78
2023-05-12T13:29:27.224Z,2.92
2023-05-12T13:33:30.064Z,2.72
2023-05-12T13:37:33.005Z,2.75
2023-05-12T13:41:37.318Z,2.30
2023-05-12T13:45:40.180Z,2.22
2023-05-12T13:49:43.160Z,2.60
2023-05-12T13:53:46.322Z,2.53
2023-05-12T13:57:54.232Z,3.42
2023-05-12T14:01:57.070Z,3.80
2023-05-12T14:05:59.891Z,3.47
2023-05-12T14:10:02.652Z,3.53
2023-05-12T14:14:06.932Z,4.25
2023-05-12T14:18:09.863Z,3.85
2023-05-12T14:22:25.080Z,3.40
2023-05-12T14:26:28.746Z,4.43
2023-05-12T14:30:34.896Z,4.60
2023-05-12T14:34:37.822Z,4.55
2023-05-12T14:38:40.660Z,4.40
2023-05-12T14:42:43.438Z,4.20
2023-05-12T14:46:47.707Z,4.00
2023-05-12T14:50:53.540Z,3.88
2023-05-12T14:54:56.318Z,3.78
2023-05-12T14:58:59.171Z,3.40
2023-05-12T15:03:05.449Z,3.80
2023-05-12T15:07:08.375Z,3.55
2023-05-12T15:11:11.452Z,3.80
2023-05-12T15:15:14.179Z,3.38
2023-05-12T15:19:20.485Z,3.53
2023-05-12T15:27:26.196Z,3.22
2023-05-12T15:31:30.195Z,3.67
2023-05-12T15:35:34.905Z,3.67
2023-05-12T15:39:37.756Z,3.67
2023-05-12T15:43:41.062Z,3.60
2023-05-12T15:47:43.905Z,4.05
2023-05-12T15:51:48.454Z,4.07
2023-05-12T15:56:00.272Z,4.45
2023-05-12T16:00:03.588Z,4.30
2023-05-12T16:04:15.797Z,5.20
2023-05-12T16:08:20.432Z,4.38
2023-05-12T16:12:23.483Z,4.63
2023-05-12T16:16:26.529Z,4.90
2023-05-12T16:20:29.742Z,4.80
2023-05-12T16:24:34.632Z,4.47
2023-05-12T16:28:37.672Z,5.28
2023-05-12T16:32:40.775Z,4.93
2023-05-12T16:36:43.626Z,4.72
2023-05-12T16:40:47.726Z,5.25
2023-05-12T16:44:50.466Z,5.38
2023-05-12T16:48:53.411Z,5.70
2023-05-12T16:52:56.280Z,5.03
2023-05-12T16:57:03.585Z,4.85
2023-05-12T17:01:08.448Z,4.53
2023-05-12T17:05:13.562Z,4.22
2023-05-12T17:09:16.348Z,3.75
2023-05-12T17:13:21.283Z,3.47
2023-05-12T17:17:24.123Z,3.22
2023-05-12T17:21:26.884Z,3.05
2023-05-12T17:25:31.154Z,3.10
2023-05-12T17:29:35.306Z,3.50
2023-05-12T17:33:38.078Z,3.10
2023-05-12T17:37:40.880Z,2.90
2023-05-12T17:41:44.407Z,2.65
2023-05-12T17:45:48.842Z,2.65
2023-05-12T17:49:52.150Z,2.70
2023-05-12T17:53:55.192Z,2.72
2023-05-12T17:57:58.031Z,3.20
2023-05-12T18:02:02.301Z,2.75
2023-05-12T18:06:05.747Z,3.10
2023-05-12T18:10:09.762Z,3.10
2023-05-12T18:14:12.594Z,3.25
2023-05-12T18:18:16.956Z,3.38
2023-05-12T18:22:19.823Z,2.95
2023-05-12T18:26:23.104Z,3.63
2023-05-12T18:30:26.061Z,3.10
2023-05-12T18:34:30.721Z,3.28
2023-05-12T18:38:33.889Z,3.10
2023-05-12T18:42:36.704Z,3.13
2023-05-12T18:46:39.727Z,3.03
2023-05-12T18:50:44.147Z,3.40
2023-05-12T18:54:48.856Z,3.47
2023-05-12T18:58:52.533Z,3.70
2023-05-12T19:02:55.359Z,3.45
2023-05-12T19:06:59.554Z,4.40
2023-05-12T19:11:02.368Z,3.88
2023-05-12T19:15:05.657Z,3.88
2023-05-12T19:19:08.554Z,3.88
2023-05-12T19:23:12.864Z,3.70
2023-05-12T19:27:15.725Z,3.38
2023-05-12T19:31:18.586Z,3.63
2023-05-12T19:35:22.658Z,3.28
2023-05-12T19:39:27.159Z,3.70
2023-05-12T19:43:29.928Z,3.22
2023-05-12T19:47:33.478Z,3.75
2023-05-12T19:51:36.463Z,3.88
2023-05-12T19:55:40.667Z,3.90
2023-05-12T19:59:43.527Z,4.13
2023-05-12T20:03:46.420Z,4.38
2023-05-12T20:07:49.564Z,4.50
2023-05-12T20:11:53.944Z,4.50
2023-05-12T20:15:56.832Z,4.68
2023-05-12T20:20:01.299Z,5.32
2023-05-12T20:24:04.488Z,5.50
2023-05-12T20:28:09.515Z,5.03
2023-05-12T20:32:14.290Z,5.45
2023-05-12T20:36:17.301Z,5.25
2023-05-12T20:40:20.649Z,5.00
2023-05-12T20:44:26.333Z,5.20
2023-05-12T20:48:29.182Z,5.40
2023-05-12T20:52:33.462Z,5.82
2023-05-12T20:56:36.283Z,5.22
2023-05-12T21:00:40.385Z,5.75
2023-05-12T21:04:43.202Z,5.38
2023-05-12T21:08:46.729Z,5.75
2023-05-12T21:12:49.553Z,5.10
2023-05-12T21:16:53.832Z,5.55
2023-05-12T21:20:56.591Z,5.43
2023-05-12T21:24:59.372Z,5.20
2023-05-12T21:29:02.867Z,5.70
2023-05-12T21:33:07.105Z,5.18
2023-05-12T21:37:09.885Z,5.57
2023-05-12T21:41:12.703Z,5.60
2023-05-12T21:45:15.486Z,5.60
2023-05-12T21:49:19.634Z,5.63
2023-05-12T21:53:22.467Z,5.57
2023-05-12T21:57:25.297Z,6.13
2023-05-12T22:01:28.306Z,6.15
2023-05-12T22:05:32.466Z,6.35
2023-05-12T22:09:35.325Z,5.90
2023-05-12T22:13:38.217Z,7.18
2023-05-12T22:17:41.066Z,6.30
2023-05-12T22:21:45.632Z,6.30
2023-05-12T22:25:48.457Z,6.10
2023-05-12T22:29:51.282Z,6.60
2023-05-12T22:33:54.122Z,5.68
2023-05-12T22:37:58.338Z,5.82
2023-05-12T22:42:01.191Z,5.93
2023-05-12T22:46:05.845Z,5.68
2023-05-12T22:50:09.274Z,6.18
2023-05-12T22:54:13.382Z,5.53
2023-05-12T22:58:16.118Z,5.70
2023-05-12T23:02:18.945Z,5.82
2023-05-12T23:06:21.751Z,5.40
2023-05-12T23:10:25.892Z,5.75
2023-05-12T23:14:28.644Z,4.97
2023-05-12T23:18:32.023Z,5.28
2023-05-12T23:22:35.035Z,5.38
2023-05-12T23:26:40.053Z,5.45
2023-05-12T23:30:42.901Z,5.55
2023-05-12T23:34:45.832Z,5.97
2023-05-12T23:38:50.804Z,6.57
2023-05-12T23:42:54.984Z,5.60
2023-05-12T23:46:57.765Z,5.32
2023-05-12T23:51:00.576Z,5.78
2023-05-12T23:55:03.330Z,5.40
2023-05-12T23:59:07.472Z,5.38
